Time;durP1;ratioP1;P1;durP2;ratioP2;P2;SDS_P1;SDS_P2;PMS_P1;PMS_P2;Temp;Humidity;BMP_temperature;BMP_pressure;BME280_temperature;BME280_humidity;BME280_pressure;Samples;Min_cycle;Max_cycle;Signal;HPM_P1;HPM_P2
2023/12/14 00:04:26;;;;;;;85.13;32.53;;;;;8.20;100310.00;;;;10158521;28;20214;-86
2023/12/14 00:09:27;;;;;;;90.87;34.53;;;;;8.20;100319.00;;;;10156796;28;20238;-86
2023/12/14 00:14:28;;;;;;;103.73;36.33;;;;;8.20;100325.00;;;;10103648;29;20227;-86
2023/12/14 00:19:29;;;;;;;89.37;34.73;;;;;8.20;100330.00;;;;10087245;29;20795;-86
2023/12/14 00:24:31;;;;;;;83.17;31.77;;;;;8.20;100343.00;;;;10097461;29;20258;-85
2023/12/14 00:29:32;;;;;;;92.57;33.50;;;;;8.20;100353.00;;;;10107562;29;20234;-86
2023/12/14 00:34:33;;;;;;;86.07;32.20;;;;;8.20;100358.00;;;;10104505;29;20233;-86
2023/12/14 00:39:34;;;;;;;89.93;34.63;;;;;8.20;100375.00;;;;10093844;29;20238;-86
2023/12/14 00:44:35;;;;;;;87.67;33.43;;;;;8.20;100384.00;;;;10105788;29;20341;-86
2023/12/14 00:49:37;;;;;;;87.10;32.73;;;;;8.30;100394.00;;;;10106484;29;20321;-86
2023/12/14 00:54:38;;;;;;;82.43;29.97;;;;;8.30;100400.00;;;;10102964;29;20653;-86
2023/12/14 00:59:40;;;;;;;79.23;29.93;;;;;8.20;100404.00;;;;10091216;29;20246;-84
2023/12/14 01:04:42;;;;;;;86.27;28.57;;;;;8.20;100426.00;;;;10092746;29;20333;-85
2023/12/14 01:09:43;;;;;;;92.30;31.10;;;;;8.20;100427.00;;;;10094275;29;20238;-84
2023/12/14 01:14:44;;;;;;;97.27;32.47;;;;;8.30;100433.00;;;;10084552;29;20231;-84
2023/12/14 01:19:45;;;;;;;92.40;33.47;;;;;8.30;100451.00;;;;10099250;29;20231;-85
2023/12/14 01:24:46;;;;;;;91.20;33.87;;;;;8.30;100456.00;;;;10109254;29;20316;-84
2023/12/14 01:29:48;;;;;;;86.47;31.43;;;;;8.30;100469.00;;;;10092787;29;20548;-85
2023/12/14 01:34:49;;;;;;;88.93;31.20;;;;;8.30;100487.00;;;;10090130;29;20231;-84
2023/12/14 01:39:51;;;;;;;79.67;32.43;;;;;8.30;100496.00;;;;10112951;29;20227;-83
2023/12/14 01:44:52;;;;;;;74.77;29.53;;;;;8.20;100505.00;;;;10090574;29;20975;-85
2023/12/14 01:49:53;;;;;;;58.27;23.87;;;;;8.10;100519.00;;;;10113291;29;20222;-84
2023/12/14 01:54:55;;;;;;;57.30;22.53;;;;;7.90;100537.00;;;;10097430;29;20241;-84
2023/12/14 01:59:56;;;;;;;57.87;23.13;;;;;7.80;100560.00;;;;10099635;29;20317;-85
2023/12/14 02:04:57;;;;;;;51.23;19.37;;;;;7.70;100564.00;;;;10090599;29;20238;-80
2023/12/14 02:09:59;;;;;;;54.37;21.23;;;;;7.60;100576.00;;;;10091555;29;20369;-81
2023/12/14 02:15:01;;;;;;;51.23;19.50;;;;;7.60;100576.00;;;;10092507;29;20732;-80
2023/12/14 02:20:03;;;;;;;53.27;20.70;;;;;7.50;100594.00;;;;10101772;29;20683;-79
2023/12/14 02:25:05;;;;;;;48.97;19.13;;;;;7.50;100601.00;;;;10093279;29;20258;-79
2023/12/14 02:30:06;;;;;;;43.70;18.90;;;;;7.50;100600.00;;;;10089126;29;20295;-79
2023/12/14 02:35:08;;;;;;;45.00;18.87;;;;;7.40;100617.00;;;;10111449;29;20223;-80
2023/12/14 02:40:10;;;;;;;46.10;16.57;;;;;7.40;100619.00;;;;10112386;29;20314;-80
2023/12/14 02:45:11;;;;;;;45.33;18.77;;;;;7.30;100621.00;;;;10110826;29;20231;-79
2023/12/14 02:50:13;;;;;;;48.37;18.83;;;;;7.30;100629.00;;;;10095588;29;20605;-80
2023/12/14 02:55:14;;;;;;;42.03;17.93;;;;;7.30;100641.00;;;;10113169;29;20241;-79
2023/12/14 03:00:15;;;;;;;46.57;19.57;;;;;7.20;100646.00;;;;10104942;29;20849;-79
2023/12/14 03:05:16;;;;;;;46.87;18.83;;;;;7.20;100648.00;;;;10114473;29;20231;-79
2023/12/14 03:10:18;;;;;;;52.70;20.83;;;;;7.20;100652.00;;;;10108696;29;20223;-85
2023/12/14 03:15:19;;;;;;;46.27;19.10;;;;;7.20;100650.00;;;;10098124;29;20637;-86
2023/12/14 03:20:21;;;;;;;46.00;19.70;;;;;7.10;100665.00;;;;10115575;29;20242;-87
2023/12/14 03:25:22;;;;;;;46.33;17.07;;;;;7.10;100663.00;;;;10105294;29;20876;-87
2023/12/14 03:30:24;;;;;;;40.17;17.03;;;;;7.10;100668.00;;;;10110430;29;20314;-86
2023/12/14 03:35:25;;;;;;;39.73;16.37;;;;;7.10;100681.00;;;;10099953;29;20250;-86
2023/12/14 03:40:26;;;;;;;35.83;14.83;;;;;7.00;100688.00;;;;10092691;29;20239;-86
2023/12/14 03:45:27;;;;;;;33.63;14.13;;;;;7.00;100694.00;;;;10088928;29;20247;-85
2023/12/14 03:50:29;;;;;;;36.50;15.43;;;;;6.90;100700.00;;;;10098457;29;20246;-84
2023/12/14 03:55:30;;;;;;;36.47;15.83;;;;;6.80;100717.00;;;;10104734;29;20310;-85
2023/12/14 04:00:32;;;;;;;35.17;16.73;;;;;6.80;100716.00;;;;10096056;29;20242;-86
2023/12/14 04:05:33;;;;;;;40.53;17.27;;;;;6.80;100738.00;;;;10118748;29;20984;-86
2023/12/14 04:10:34;;;;;;;32.40;15.53;;;;;6.70;100753.00;;;;10094427;29;20239;-84
2023/12/14 04:15:35;;;;;;;42.07;18.67;;;;;6.60;100760.00;;;;10099953;29;20583;-87
2023/12/14 04:20:37;;;;;;;38.93;18.80;;;;;6.60;100780.00;;;;10116475;29;20262;-87
2023/12/14 04:25:38;;;;;;;38.13;17.43;;;;;6.50;100788.00;;;;10108756;29;20231;-85
2023/12/14 04:30:39;;;;;;;37.93;18.80;;;;;6.40;100801.00;;;;10101707;29;20254;-86
2023/12/14 04:35:40;;;;;;;40.53;19.87;;;;;6.30;100819.00;;;;10111174;29;20290;-86
2023/12/14 04:40:41;;;;;;;33.40;19.53;;;;;6.30;100837.00;;;;10116810;29;20230;-86
2023/12/14 04:45:44;;;;;;;32.73;18.07;;;;;6.30;100835.00;;;;10111132;29;20255;-86
2023/12/14 04:50:45;;;;;;;34.57;18.87;;;;;6.20;100853.00;;;;10098520;29;20234;-86
2023/12/14 04:55:47;;;;;;;33.83;17.47;;;;;6.10;100851.00;;;;10113289;29;20231;-87
2023/12/14 05:00:48;;;;;;;30.07;16.97;;;;;6.10;100858.00;;;;10113657;29;20235;-87
2023/12/14 05:05:49;;;;;;;31.67;17.40;;;;;6.00;100868.00;;;;10096593;29;20266;-87
2023/12/14 05:10:51;;;;;;;29.27;15.73;;;;;6.00;100890.00;;;;10109786;29;20231;-88
2023/12/14 05:15:52;;;;;;;30.97;18.13;;;;;6.00;100899.00;;;;10090426;29;20233;-85
2023/12/14 05:20:53;;;;;;;29.87;17.10;;;;;6.00;100908.00;;;;10101784;29;20223;-86
2023/12/14 05:25:54;;;;;;;39.27;20.13;;;;;6.00;100913.00;;;;10143619;28;20230;-84
2023/12/14 05:30:55;;;;;;;35.20;19.77;;;;;6.00;100918.00;;;;10107042;29;20912;-82
2023/12/14 05:35:57;;;;;;;38.47;21.20;;;;;6.00;100932.00;;;;10102829;29;20366;-81
2023/12/14 05:40:58;;;;;;;39.87;20.20;;;;;6.00;100944.00;;;;10108065;29;21079;-80
2023/12/14 05:46:00;;;;;;;37.23;20.13;;;;;6.00;100946.00;;;;10101902;29;20590;-81
2023/12/14 05:51:02;;;;;;;35.73;19.83;;;;;6.00;100953.00;;;;10110341;29;20298;-81
2023/12/14 05:56:03;;;;;;;43.33;22.63;;;;;6.00;100959.00;;;;10103786;29;20257;-81
2023/12/14 06:01:05;;;;;;;33.60;19.53;;;;;6.00;100970.00;;;;10093309;29;20321;-82
2023/12/14 06:06:06;;;;;;;35.87;20.40;;;;;6.00;100988.00;;;;10109421;29;20237;-79
2023/12/14 06:11:08;;;;;;;34.60;20.30;;;;;6.00;100989.00;;;;10085441;29;20239;-80
2023/12/14 06:16:12;;;;;;;36.63;20.53;;;;;6.00;101004.00;;;;10104128;29;20231;-80
2023/12/14 06:21:13;;;;;;;37.03;21.37;;;;;6.00;101020.00;;;;10115885;29;20909;-79
2023/12/14 06:26:14;;;;;;;32.83;19.40;;;;;6.00;101026.00;;;;10065802;29;20697;-81
2023/12/14 06:31:17;;;;;;;32.27;19.03;;;;;6.00;101034.00;;;;10082343;29;20229;-80
2023/12/14 06:36:19;;;;;;;35.13;20.30;;;;;6.00;101043.00;;;;10102482;29;20238;-80
2023/12/14 06:41:23;;;;;;;34.50;19.97;;;;;6.00;101055.00;;;;10110005;29;20238;-80
2023/12/14 06:46:25;;;;;;;32.00;20.00;;;;;6.00;101062.00;;;;10099604;29;20247;-80
2023/12/14 06:51:26;;;;;;;35.33;21.00;;;;;6.00;101082.00;;;;10111752;29;20919;-81
2023/12/14 06:56:27;;;;;;;39.63;23.00;;;;;6.00;101086.00;;;;10114566;29;20318;-80
2023/12/14 07:01:28;;;;;;;34.40;20.73;;;;;6.00;101101.00;;;;10106259;29;20895;-80
2023/12/14 07:06:30;;;;;;;35.57;20.67;;;;;5.90;101102.00;;;;10108676;29;20306;-81
2023/12/14 07:11:31;;;;;;;33.90;20.30;;;;;5.90;101099.00;;;;10093077;29;20661;-82
2023/12/14 07:16:32;;;;;;;34.93;21.47;;;;;5.90;101120.00;;;;10093532;29;20227;-79
2023/12/14 07:21:34;;;;;;;32.13;20.67;;;;;5.90;101111.00;;;;10095520;29;20994;-80
2023/12/14 07:26:35;;;;;;;36.27;19.17;;;;;5.80;101108.00;;;;10097580;29;20297;-80
2023/12/14 07:31:36;;;;;;;28.73;18.63;;;;;5.50;101115.00;;;;10104350;29;20227;-79
2023/12/14 07:36:37;;;;;;;33.17;19.40;;;;;5.30;101117.00;;;;10113092;29;20251;-80
2023/12/14 07:41:38;;;;;;;25.23;17.63;;;;;5.20;101131.00;;;;10108638;29;20751;-80
2023/12/14 07:46:42;;;;;;;28.17;17.20;;;;;5.00;101139.00;;;;10092759;29;20885;-78
2023/12/14 07:51:43;;;;;;;34.57;21.10;;;;;5.00;101159.00;;;;10115109;29;20238;-85
2023/12/14 07:56:44;;;;;;;30.97;18.80;;;;;5.00;101171.00;;;;10133402;29;20296;-84
2023/12/14 08:01:46;;;;;;;34.87;18.67;;;;;5.10;101191.00;;;;10152109;28;20218;-84
2023/12/14 08:06:47;;;;;;;37.77;19.23;;;;;5.30;101206.00;;;;10170412;28;20254;-84
2023/12/14 08:11:49;;;;;;;34.90;19.73;;;;;5.40;101217.00;;;;10122238;29;20959;-84
2023/12/14 08:16:51;;;;;;;30.40;18.27;;;;;5.50;101212.00;;;;10105544;29;20277;-85
2023/12/14 08:21:53;;;;;;;34.93;20.60;;;;;5.50;101227.00;;;;10112048;29;20236;-85
2023/12/14 08:26:54;;;;;;;31.93;20.30;;;;;5.40;101233.00;;;;10096093;29;20278;-84
2023/12/14 08:31:57;;;;;;;34.70;19.77;;;;;5.30;101232.00;;;;10098622;29;20231;-84
2023/12/14 08:37:02;;;;;;;34.70;19.57;;;;;5.30;101238.00;;;;10105648;29;20231;-83
2023/12/14 08:42:04;;;;;;;35.13;19.83;;;;;5.40;101261.00;;;;10095969;29;20761;-84
2023/12/14 08:47:05;;;;;;;33.90;19.40;;;;;5.60;101263.00;;;;10096252;29;20247;-85
2023/12/14 08:52:06;;;;;;;36.50;19.37;;;;;5.70;101279.00;;;;10095382;29;20241;-84
2023/12/14 08:57:07;;;;;;;31.27;17.70;;;;;6.00;101286.00;;;;10089289;29;20230;-80
2023/12/14 09:02:09;;;;;;;32.10;18.93;;;;;6.30;101302.00;;;;10105927;29;20247;-80
2023/12/14 09:07:10;;;;;;;33.63;18.00;;;;;7.00;101310.00;;;;10087116;29;20241;-80
2023/12/14 09:12:12;;;;;;;26.77;16.23;;;;;7.50;101323.00;;;;10121220;29;20233;-81
2023/12/14 09:17:13;;;;;;;20.90;12.50;;;;;7.30;101336.00;;;;10115969;29;20310;-81
2023/12/14 09:22:14;;;;;;;19.47;12.90;;;;;7.30;101340.00;;;;10094231;29;20241;-80
2023/12/14 09:27:16;;;;;;;22.67;12.60;;;;;7.30;101340.00;;;;10096172;29;20225;-81
2023/12/14 09:32:17;;;;;;;19.53;11.73;;;;;7.20;101348.00;;;;10095911;29;20773;-83
2023/12/14 09:37:19;;;;;;;20.83;13.83;;;;;7.20;101355.00;;;;10103426;29;20237;-81
2023/12/14 09:42:21;;;;;;;26.03;17.50;;;;;7.20;101373.00;;;;10084196;29;20371;-80
2023/12/14 09:47:22;;;;;;;24.90;12.50;;;;;7.20;101376.00;;;;10096255;29;20253;-80
2023/12/14 09:52:23;;;;;;;19.33;11.47;;;;;7.50;101377.00;;;;10122654;29;20238;-81
2023/12/14 09:57:25;;;;;;;21.10;12.33;;;;;7.60;101390.00;;;;10090066;29;20847;-81
2023/12/14 10:02:27;;;;;;;21.17;13.17;;;;;7.60;101390.00;;;;10098912;29;20630;-81
2023/12/14 10:07:30;;;;;;;18.40;11.07;;;;;7.40;101404.00;;;;10086054;29;20238;-84
2023/12/14 10:12:34;;;;;;;17.70;11.73;;;;;7.30;101410.00;;;;10086936;29;20318;-83
2023/12/14 10:17:36;;;;;;;15.27;10.50;;;;;7.30;101420.00;;;;10092777;29;20346;-83
2023/12/14 10:22:37;;;;;;;15.70;10.73;;;;;7.20;101427.00;;;;10088852;29;20678;-83
2023/12/14 10:27:38;;;;;;;19.73;10.73;;;;;7.30;101438.00;;;;10087243;29;20261;-83
2023/12/14 10:32:41;;;;;;;22.23;10.90;;;;;7.40;101445.00;;;;10083796;29;20783;-84
2023/12/14 10:37:43;;;;;;;15.03;9.30;;;;;7.40;101439.00;;;;10112822;29;20253;-83
2023/12/14 10:42:45;;;;;;;18.20;9.93;;;;;7.40;101443.00;;;;10131857;28;20238;-82
2023/12/14 10:47:50;;;;;;;21.50;9.53;;;;;7.40;101449.00;;;;10129235;28;20315;-83
2023/12/14 10:52:51;;;;;;;9.80;6.87;;;;;7.40;101461.00;;;;10124014;29;20231;-84
2023/12/14 10:57:53;;;;;;;14.13;8.73;;;;;7.50;101474.00;;;;10107362;29;20238;-84
2023/12/14 11:02:54;;;;;;;13.67;7.93;;;;;7.60;101475.00;;;;10088425;29;20236;-83
2023/12/14 11:08:03;;;;;;;11.63;7.53;;;;;7.80;101474.00;;;;10101279;29;20229;-84
2023/12/14 11:13:13;;;;;;;12.63;7.27;;;;;8.00;101467.00;;;;10089906;29;20756;-83
2023/12/14 11:18:14;;;;;;;13.50;7.13;;;;;8.20;101472.00;;;;10111215;29;20774;-83
2023/12/14 11:23:23;;;;;;;12.00;6.47;;;;;8.00;101474.00;;;;10064472;29;20936;-85
2023/12/14 11:28:24;;;;;;;11.07;6.00;;;;;7.90;101476.00;;;;10097830;29;20235;-84
2023/12/14 11:33:28;;;;;;;11.37;7.20;;;;;7.80;101488.00;;;;10080578;29;20251;-84
2023/12/14 11:38:30;;;;;;;19.10;7.20;;;;;7.80;101488.00;;;;10102717;29;20593;-83
2023/12/14 11:43:42;;;;;;;12.00;6.87;;;;;7.70;101490.00;;;;10088815;29;20333;-81
2023/12/14 11:48:56;;;;;;;13.87;6.40;;;;;7.50;101489.00;;;;10090484;29;20294;-83
2023/12/14 11:54:00;;;;;;;9.43;6.00;;;;;7.40;101491.00;;;;10109008;29;20701;-83
2023/12/14 11:59:02;;;;;;;10.97;6.97;;;;;7.40;101503.00;;;;10079020;29;20992;-84
2023/12/14 12:04:12;;;;;;;10.33;5.13;;;;;7.40;101507.00;;;;10085365;29;20235;-82
2023/12/14 12:09:13;;;;;;;12.70;4.87;;;;;7.30;101517.00;;;;10074037;29;20242;-82
2023/12/14 12:14:14;;;;;;;16.63;5.37;;;;;7.10;101512.00;;;;10083836;29;20837;-81
2023/12/14 12:19:15;;;;;;;8.63;4.80;;;;;7.20;101520.00;;;;10086891;29;20233;-81
2023/12/14 12:24:16;;;;;;;13.30;6.33;;;;;7.20;101519.00;;;;10113623;29;20214;-80
2023/12/14 12:29:28;;;;;;;10.57;5.90;;;;;7.20;101528.00;;;;10083197;29;21074;-84
2023/12/14 12:34:29;;;;;;;15.50;7.03;;;;;7.10;101526.00;;;;10106037;29;20223;-83
2023/12/14 12:39:30;;;;;;;13.77;7.53;;;;;6.80;101529.00;;;;10105338;29;20236;-83
2023/12/14 12:44:31;;;;;;;11.83;7.17;;;;;6.60;101527.00;;;;10086626;29;20277;-84
2023/12/14 12:49:33;;;;;;;16.17;7.87;;;;;6.60;101536.00;;;;10098065;29;20246;-84
2023/12/14 12:54:34;;;;;;;17.60;8.83;;;;;6.90;101536.00;;;;10081073;29;20296;-84
2023/12/14 12:59:35;;;;;;;13.40;9.83;;;;;7.00;101540.00;;;;10095959;29;20227;-84
2023/12/14 13:04:37;;;;;;;19.70;9.50;;;;;7.10;101538.00;;;;10104740;29;20223;-84
2023/12/14 13:09:38;;;;;;;22.10;9.97;;;;;7.20;101534.00;;;;10088210;29;20235;-83
2023/12/14 13:14:40;;;;;;;17.73;10.27;;;;;7.10;101555.00;;;;10107310;29;20234;-84
2023/12/14 13:19:41;;;;;;;19.70;10.40;;;;;7.10;101553.00;;;;10132455;29;20224;-84
2023/12/14 13:24:42;;;;;;;20.13;10.17;;;;;7.40;101549.00;;;;10153764;28;20278;-84
2023/12/14 13:29:45;;;;;;;16.73;10.33;;;;;7.70;101559.00;;;;10102832;29;20290;-84
2023/12/14 13:34:46;;;;;;;17.13;9.77;;;;;7.60;101568.00;;;;10085012;29;20314;-85
2023/12/14 13:39:48;;;;;;;17.53;8.30;;;;;7.30;101581.00;;;;10088441;29;20241;-84
2023/12/14 13:44:50;;;;;;;11.77;7.13;;;;;7.10;101579.00;;;;10093926;29;20254;-84
2023/12/14 13:49:51;;;;;;;16.53;7.90;;;;;7.10;101578.00;;;;10094160;29;20238;-84
2023/12/14 13:54:52;;;;;;;12.93;8.43;;;;;7.10;101586.00;;;;10104442;29;20235;-84
2023/12/14 13:59:54;;;;;;;16.87;8.80;;;;;7.20;101604.00;;;;10105382;29;20310;-85
2023/12/14 14:04:55;;;;;;;14.43;8.50;;;;;7.20;101606.00;;;;10088813;29;20952;-83
2023/12/14 14:09:56;;;;;;;14.70;8.90;;;;;7.10;101614.00;;;;10093586;29;20230;-85
2023/12/14 14:14:57;;;;;;;19.07;9.87;;;;;7.20;101628.00;;;;10097980;29;20262;-84
2023/12/14 14:19:59;;;;;;;20.03;9.53;;;;;7.30;101627.00;;;;10094769;29;20255;-84
2023/12/14 14:25:01;;;;;;;16.73;9.63;;;;;7.30;101625.00;;;;10092083;29;20306;-84
2023/12/14 14:30:03;;;;;;;26.60;9.93;;;;;7.30;101634.00;;;;10086007;29;20242;-84
2023/12/14 14:35:06;;;;;;;14.90;9.43;;;;;7.20;101646.00;;;;10104517;29;20229;-85
2023/12/14 14:40:08;;;;;;;14.17;9.33;;;;;7.20;101639.00;;;;10102407;29;20342;-86
2023/12/14 14:45:11;;;;;;;15.83;10.70;;;;;7.10;101649.00;;;;10090075;29;20369;-84
2023/12/14 14:50:12;;;;;;;19.80;9.97;;;;;7.10;101659.00;;;;10099942;29;20235;-80
2023/12/14 14:55:14;;;;;;;22.47;10.47;;;;;7.10;101660.00;;;;10094269;29;20337;-82
2023/12/14 15:00:15;;;;;;;19.83;11.87;;;;;7.10;101667.00;;;;10098012;29;20227;-81
2023/12/14 15:05:17;;;;;;;19.37;10.60;;;;;7.10;101673.00;;;;10111545;29;20855;-81
2023/12/14 15:10:18;;;;;;;15.43;10.70;;;;;7.10;101684.00;;;;10094237;29;20237;-81
2023/12/14 15:15:19;;;;;;;16.53;9.47;;;;;7.10;101699.00;;;;10092531;29;20687;-81
2023/12/14 15:20:20;;;;;;;15.17;9.63;;;;;7.10;101707.00;;;;10102736;29;20804;-80
2023/12/14 15:25:22;;;;;;;12.63;7.90;;;;;7.00;101716.00;;;;10097177;29;20278;-81
2023/12/14 15:30:23;;;;;;;18.83;7.93;;;;;6.80;101731.00;;;;10087130;29;20294;-81
2023/12/14 15:35:24;;;;;;;12.30;7.67;;;;;6.60;101730.00;;;;10095641;29;20230;-81
2023/12/14 15:40:25;;;;;;;17.53;8.40;;;;;6.50;101732.00;;;;10099157;29;20229;-81
2023/12/14 15:45:27;;;;;;;17.57;8.63;;;;;6.50;101748.00;;;;10102598;29;20231;-82
2023/12/14 15:50:29;;;;;;;15.27;8.17;;;;;6.50;101752.00;;;;10108597;29;20250;-81
2023/12/14 15:55:30;;;;;;;14.57;8.00;;;;;6.50;101771.00;;;;10091307;29;20277;-81
2023/12/14 16:00:32;;;;;;;13.07;7.57;;;;;6.50;101785.00;;;;10085333;29;20310;-78
2023/12/14 16:05:38;;;;;;;14.87;7.10;;;;;6.50;101783.00;;;;10122432;29;20231;-79
2023/12/14 16:10:41;;;;;;;14.20;7.87;;;;;6.50;101790.00;;;;10101836;29;20246;-78
2023/12/14 16:15:42;;;;;;;13.17;7.73;;;;;6.50;101798.00;;;;10102719;29;20223;-83
2023/12/14 16:20:43;;;;;;;12.57;7.77;;;;;6.50;101801.00;;;;10101315;29;20264;-80
2023/12/14 16:25:45;;;;;;;14.07;6.83;;;;;6.40;101808.00;;;;10091261;29;20238;-82
2023/12/14 16:30:50;;;;;;;16.07;7.00;;;;;6.40;101813.00;;;;10087974;29;20239;-81
2023/12/14 16:35:51;;;;;;;13.17;5.90;;;;;6.30;101819.00;;;;10099260;29;20227;-80
2023/12/14 16:40:52;;;;;;;13.37;5.60;;;;;6.30;101824.00;;;;10104997;29;20788;-79
2023/12/14 16:45:53;;;;;;;10.57;3.97;;;;;6.30;101825.00;;;;10097000;29;20242;-80
2023/12/14 16:50:55;;;;;;;9.87;4.10;;;;;6.30;101821.00;;;;10098820;29;20262;-79
2023/12/14 16:56:00;;;;;;;6.73;4.00;;;;;6.20;101830.00;;;;10116392;29;20338;-78
2023/12/14 17:01:03;;;;;;;8.77;4.27;;;;;6.10;101841.00;;;;10097665;29;20293;-79
2023/12/14 17:06:07;;;;;;;8.70;4.53;;;;;6.10;101848.00;;;;10105233;29;20234;-79
2023/12/14 17:11:09;;;;;;;7.37;4.17;;;;;6.10;101850.00;;;;10090451;29;20918;-80
2023/12/14 17:16:15;;;;;;;10.57;4.20;;;;;5.90;101860.00;;;;10106145;29;20223;-80
2023/12/14 17:21:24;;;;;;;10.70;4.10;;;;;5.80;101862.00;;;;10106108;29;20227;-80
2023/12/14 17:26:27;;;;;;;7.77;3.70;;;;;5.60;101873.00;;;;10103675;29;20231;-79
2023/12/14 17:31:28;;;;;;;4.73;3.30;;;;;5.50;101878.00;;;;10103979;29;20794;-80
2023/12/14 17:36:30;;;;;;;11.60;4.17;;;;;5.30;101879.00;;;;10100659;29;20235;-79
2023/12/14 17:41:31;;;;;;;12.93;4.40;;;;;5.20;101882.00;;;;10113223;29;20233;-80
2023/12/14 17:46:32;;;;;;;12.87;5.03;;;;;5.30;101888.00;;;;10102577;29;20694;-79
2023/12/14 17:51:39;;;;;;;12.67;5.63;;;;;5.30;101898.00;;;;10087923;29;20231;-80
2023/12/14 17:56:40;;;;;;;7.10;3.77;;;;;5.40;101906.00;;;;10118866;29;20314;-79
2023/12/14 18:01:48;;;;;;;12.30;4.87;;;;;5.40;101917.00;;;;10104162;29;20325;-79
2023/12/14 18:06:50;;;;;;;13.33;7.53;;;;;5.40;101921.00;;;;10091922;29;20845;-82
2023/12/14 18:11:51;;;;;;;10.53;5.50;;;;;5.30;101912.00;;;;10086983;29;20318;-80
2023/12/14 18:16:52;;;;;;;12.13;4.60;;;;;5.20;101912.00;;;;10099121;29;20247;-84
2023/12/14 18:21:53;;;;;;;13.50;5.50;;;;;5.20;101917.00;;;;10094419;29;20239;-84
2023/12/14 18:26:54;;;;;;;15.57;5.77;;;;;5.20;101925.00;;;;10112789;29;20242;-85
2023/12/14 18:31:55;;;;;;;13.63;4.80;;;;;5.40;101943.00;;;;10093255;29;20254;-85
2023/12/14 18:36:57;;;;;;;9.87;6.43;;;;;5.50;101948.00;;;;10090039;29;20254;-85
2023/12/14 18:41:58;;;;;;;15.13;6.10;;;;;5.70;101967.00;;;;10122855;29;20219;-85
2023/12/14 18:46:59;;;;;;;12.83;6.07;;;;;5.70;101944.00;;;;10138222;28;20229;-83
2023/12/14 18:52:02;;;;;;;18.93;5.63;;;;;5.80;101959.00;;;;10112927;29;21248;-84
2023/12/14 18:57:03;;;;;;;12.07;5.40;;;;;5.90;101955.00;;;;10115300;29;20566;-86
2023/12/14 19:02:05;;;;;;;16.70;6.27;;;;;6.00;101966.00;;;;10091625;29;20262;-85
2023/12/14 19:07:06;;;;;;;15.13;6.80;;;;;6.10;101970.00;;;;10090297;29;20235;-85
2023/12/14 19:12:07;;;;;;;14.53;7.07;;;;;6.20;101977.00;;;;10106146;29;20705;-85
2023/12/14 19:17:08;;;;;;;15.23;7.87;;;;;6.20;101989.00;;;;10099910;29;20219;-85
2023/12/14 19:22:09;;;;;;;26.63;9.13;;;;;6.30;101990.00;;;;10096887;29;20266;-85
2023/12/14 19:27:12;;;;;;;18.07;7.67;;;;;6.30;101996.00;;;;10101428;29;20253;-78
2023/12/14 19:32:13;;;;;;;19.87;7.90;;;;;6.30;102003.00;;;;10091035;29;20291;-81
2023/12/14 19:37:15;;;;;;;13.47;7.37;;;;;6.30;102012.00;;;;10091774;29;20246;-80
2023/12/14 19:42:16;;;;;;;14.67;6.70;;;;;6.30;102009.00;;;;10103881;29;20250;-79
2023/12/14 19:47:17;;;;;;;13.93;5.70;;;;;6.40;102016.00;;;;10086344;29;20266;-79
2023/12/14 19:52:18;;;;;;;11.13;6.50;;;;;6.40;102028.00;;;;10094783;29;20261;-79
2023/12/14 19:57:20;;;;;;;14.47;5.80;;;;;6.40;102025.00;;;;10119854;29;20262;-80
2023/12/14 20:02:21;;;;;;;12.57;5.27;;;;;6.40;102025.00;;;;10094714;29;20242;-79
2023/12/14 20:07:25;;;;;;;10.83;5.30;;;;;6.50;102032.00;;;;10098502;29;20222;-78
2023/12/14 20:12:26;;;;;;;14.67;4.63;;;;;6.50;102043.00;;;;10120494;29;20314;-79
2023/12/14 20:17:27;;;;;;;11.47;5.00;;;;;6.50;102051.00;;;;10096605;29;20318;-79
2023/12/14 20:22:32;;;;;;;9.97;5.10;;;;;6.50;102059.00;;;;10094846;29;20235;-79
2023/12/14 20:27:33;;;;;;;15.53;5.70;;;;;6.50;102070.00;;;;10107611;29;20702;-79
2023/12/14 20:32:35;;;;;;;16.03;6.50;;;;;6.50;102077.00;;;;10118655;29;20239;-79
2023/12/14 20:37:36;;;;;;;17.27;6.30;;;;;6.60;102080.00;;;;10092155;29;20226;-85
2023/12/14 20:42:38;;;;;;;12.43;5.77;;;;;6.60;102093.00;;;;10129119;29;20246;-85
2023/12/14 20:47:39;;;;;;;12.10;5.87;;;;;6.60;102096.00;;;;10129955;29;20235;-86
2023/12/14 20:52:42;;;;;;;10.03;6.03;;;;;6.50;102094.00;;;;10126043;29;20227;-86
2023/12/14 20:57:43;;;;;;;13.10;5.87;;;;;6.50;102095.00;;;;10137516;29;20219;-85
2023/12/14 21:02:51;;;;;;;20.50;9.00;;;;;6.40;102103.00;;;;10445360;23;21025;31
2023/12/14 21:20:27;;;;;;;15.77;8.27;;;;;6.20;102116.00;;;;6469076;23;20557;-87
2023/12/14 21:25:37;;;;;;;17.43;9.40;;;;;6.20;102115.00;;;;10138447;29;20237;-86
2023/12/14 21:30:38;;;;;;;17.50;8.80;;;;;6.10;102117.00;;;;10063054;29;20667;-88
2023/12/14 21:35:40;;;;;;;19.87;9.87;;;;;6.10;102119.00;;;;10077119;29;20310;-88
2023/12/14 21:40:41;;;;;;;16.87;10.70;;;;;6.10;102131.00;;;;10059293;29;20250;-88
2023/12/14 21:45:43;;;;;;;20.50;10.30;;;;;6.10;102133.00;;;;10054610;29;20255;-86
2023/12/14 21:50:44;;;;;;;19.27;11.07;;;;;6.10;102128.00;;;;10052156;29;20236;-81
2023/12/14 21:55:45;;;;;;;18.20;11.07;;;;;6.10;102128.00;;;;10068634;29;20235;-81
2023/12/14 22:00:46;;;;;;;18.37;9.47;;;;;6.10;102122.00;;;;10062664;29;21001;-83
2023/12/14 22:05:48;;;;;;;17.77;11.77;;;;;6.10;102132.00;;;;10053728;29;20223;-81
2023/12/14 22:10:50;;;;;;;16.33;10.73;;;;;6.20;102129.00;;;;10049230;29;20232;-81
2023/12/14 22:15:51;;;;;;;18.47;12.23;;;;;6.20;102126.00;;;;10068359;29;20238;-81
2023/12/14 22:20:53;;;;;;;19.03;11.83;;;;;6.20;102134.00;;;;10069977;29;20295;-82
2023/12/14 22:25:54;;;;;;;16.93;12.50;;;;;6.20;102144.00;;;;10048711;29;20263;-81
2023/12/14 22:30:55;;;;;;;20.73;12.10;;;;;6.20;102153.00;;;;10064802;29;20338;-82
2023/12/14 22:35:56;;;;;;;19.53;12.40;;;;;6.30;102153.00;;;;10058329;29;20247;-82
2023/12/14 22:40:57;;;;;;;19.37;11.97;;;;;6.30;102153.00;;;;10062108;29;20262;-82
2023/12/14 22:46:00;;;;;;;22.90;12.90;;;;;6.30;102159.00;;;;10079762;29;20314;-82
2023/12/14 22:51:02;;;;;;;17.60;12.40;;;;;6.30;102184.00;;;;10070657;29;20234;-82
2023/12/14 22:56:03;;;;;;;19.30;11.57;;;;;6.30;102177.00;;;;10063240;29;20228;-83
2023/12/14 23:01:05;;;;;;;20.10;12.10;;;;;6.40;102186.00;;;;10067728;29;20272;-84
2023/12/14 23:06:06;;;;;;;26.03;12.83;;;;;6.40;102189.00;;;;10062329;29;20845;-84
2023/12/14 23:11:07;;;;;;;21.90;13.10;;;;;6.40;102204.00;;;;10050616;29;20234;-84
2023/12/14 23:16:09;;;;;;;18.53;12.40;;;;;6.40;102210.00;;;;10073984;29;20231;-84
2023/12/14 23:21:10;;;;;;;18.20;12.90;;;;;6.50;102209.00;;;;10053256;29;20239;-83
2023/12/14 23:26:11;;;;;;;20.30;14.47;;;;;6.50;102210.00;;;;10078563;29;20243;-84
2023/12/14 23:31:13;;;;;;;21.27;14.07;;;;;6.50;102223.00;;;;10052860;29;20286;-84
2023/12/14 23:36:15;;;;;;;22.37;13.90;;;;;6.50;102227.00;;;;10058618;29;20287;-84
2023/12/14 23:41:16;;;;;;;22.57;14.30;;;;;6.50;102237.00;;;;10061438;29;20271;-84
2023/12/14 23:46:17;;;;;;;25.30;15.17;;;;;6.60;102228.00;;;;10072709;29;20232;-83
2023/12/14 23:51:19;;;;;;;28.87;16.27;;;;;6.60;102234.00;;;;10053876;29;20726;-83
2023/12/14 23:56:20;;;;;;;27.60;16.20;;;;;6.60;102231.00;;;;10077470;29;20246;-84
